sensor_id;sensor_type;location;lat;lon;timestamp;temperature;humidity
70068;DHT22;57425;51.616;6.680;2023-12-29T00:01:56;10.90;89.70
70068;DHT22;57425;51.616;6.680;2023-12-29T00:04:25;10.90;89.70
70068;DHT22;57425;51.616;6.680;2023-12-29T00:06:50;10.90;89.70
70068;DHT22;57425;51.616;6.680;2023-12-29T00:09:16;10.90;89.70
70068;DHT22;57425;51.616;6.680;2023-12-29T00:11:41;10.90;89.70
70068;DHT22;57425;51.616;6.680;2023-12-29T00:14:07;10.90;89.70
70068;DHT22;57425;51.616;6.680;2023-12-29T00:16:33;11.00;89.70
70068;DHT22;57425;51.616;6.680;2023-12-29T00:18:58;11.00;89.70
70068;DHT22;57425;51.616;6.680;2023-12-29T00:21:24;11.00;89.70
70068;DHT22;57425;51.616;6.680;2023-12-29T00:23:49;11.00;89.70
70068;DHT22;57425;51.616;6.680;2023-12-29T00:26:18;10.90;89.70
70068;DHT22;57425;51.616;6.680;2023-12-29T00:28:44;11.00;89.70
70068;DHT22;57425;51.616;6.680;2023-12-29T00:31:14;10.90;89.70
70068;DHT22;57425;51.616;6.680;2023-12-29T00:33:43;10.90;89.70
70068;DHT22;57425;51.616;6.680;2023-12-29T00:36:17;11.00;89.70
70068;DHT22;57425;51.616;6.680;2023-12-29T00:38:44;10.90;89.70
70068;DHT22;57425;51.616;6.680;2023-12-29T00:41:10;10.90;89.70
70068;DHT22;57425;51.616;6.680;2023-12-29T00:43:36;11.20;89.90
70068;DHT22;57425;51.616;6.680;2023-12-29T00:46:02;11.00;89.70
70068;DHT22;57425;51.616;6.680;2023-12-29T00:48:33;11.00;89.70
70068;DHT22;57425;51.616;6.680;2023-12-29T00:51:03;11.00;89.70
70068;DHT22;57425;51.616;6.680;2023-12-29T00:53:29;10.90;89.70
70068;DHT22;57425;51.616;6.680;2023-12-29T00:55:57;10.90;89.70
70068;DHT22;57425;51.616;6.680;2023-12-29T00:58:23;10.90;89.70
70068;DHT22;57425;51.616;6.680;2023-12-29T01:00:48;10.90;89.70
70068;DHT22;57425;51.616;6.680;2023-12-29T01:03:14;10.90;89.60
70068;DHT22;57425;51.616;6.680;2023-12-29T01:05:40;11.00;90.10
70068;DHT22;57425;51.616;6.680;2023-12-29T01:08:05;10.90;89.60
70068;DHT22;57425;51.616;6.680;2023-12-29T01:10:31;11.00;90.10
70068;DHT22;57425;51.616;6.680;2023-12-29T01:12:57;11.00;89.70
70068;DHT22;57425;51.616;6.680;2023-12-29T01:15:23;11.00;89.70
70068;DHT22;57425;51.616;6.680;2023-12-29T01:17:49;11.00;89.70
70068;DHT22;57425;51.616;6.680;2023-12-29T01:20:14;10.90;89.60
70068;DHT22;57425;51.616;6.680;2023-12-29T01:22:40;10.90;89.60
70068;DHT22;57425;51.616;6.680;2023-12-29T01:25:06;10.90;89.60
70068;DHT22;57425;51.616;6.680;2023-12-29T01:27:32;11.00;89.70
70068;DHT22;57425;51.616;6.680;2023-12-29T01:29:57;11.00;89.70
70068;DHT22;57425;51.616;6.680;2023-12-29T01:32:23;11.00;89.70
70068;DHT22;57425;51.616;6.680;2023-12-29T01:34:49;10.90;89.60
70068;DHT22;57425;51.616;6.680;2023-12-29T01:37:14;11.00;89.70
70068;DHT22;57425;51.616;6.680;2023-12-29T01:39:40;10.90;89.60
70068;DHT22;57425;51.616;6.680;2023-12-29T01:42:06;11.00;89.70
70068;DHT22;57425;51.616;6.680;2023-12-29T01:44:32;11.00;89.70
70068;DHT22;57425;51.616;6.680;2023-12-29T01:47:03;11.00;89.70
70068;DHT22;57425;51.616;6.680;2023-12-29T01:49:31;11.00;89.60
70068;DHT22;57425;51.616;6.680;2023-12-29T01:51:58;11.00;89.70
70068;DHT22;57425;51.616;6.680;2023-12-29T01:54:35;11.00;89.70
70068;DHT22;57425;51.616;6.680;2023-12-29T01:57:03;11.00;89.60
70068;DHT22;57425;51.616;6.680;2023-12-29T01:59:29;11.00;89.70
70068;DHT22;57425;51.616;6.680;2023-12-29T02:01:55;11.00;89.70
70068;DHT22;57425;51.616;6.680;2023-12-29T02:04:24;10.90;90.00
70068;DHT22;57425;51.616;6.680;2023-12-29T02:06:50;11.00;89.70
70068;DHT22;57425;51.616;6.680;2023-12-29T02:09:17;10.90;89.70
70068;DHT22;57425;51.616;6.680;2023-12-29T02:11:44;11.00;89.70
70068;DHT22;57425;51.616;6.680;2023-12-29T02:14:10;11.20;89.90
70068;DHT22;57425;51.616;6.680;2023-12-29T02:17:10;10.90;89.70
70068;DHT22;57425;51.616;6.680;2023-12-29T02:19:41;10.90;89.70
70068;DHT22;57425;51.616;6.680;2023-12-29T02:22:10;10.90;89.70
70068;DHT22;57425;51.616;6.680;2023-12-29T02:24:36;10.90;89.80
70068;DHT22;57425;51.616;6.680;2023-12-29T02:29:33;10.90;89.80
70068;DHT22;57425;51.616;6.680;2023-12-29T02:31:59;10.90;89.80
70068;DHT22;57425;51.616;6.680;2023-12-29T02:34:28;10.90;89.80
70068;DHT22;57425;51.616;6.680;2023-12-29T02:36:56;10.90;89.80
70068;DHT22;57425;51.616;6.680;2023-12-29T02:39:22;10.90;89.90
70068;DHT22;57425;51.616;6.680;2023-12-29T02:41:48;10.90;89.80
70068;DHT22;57425;51.616;6.680;2023-12-29T02:44:13;10.90;89.90
70068;DHT22;57425;51.616;6.680;2023-12-29T02:46:39;10.90;89.90
70068;DHT22;57425;51.616;6.680;2023-12-29T02:49:06;10.90;90.20
70068;DHT22;57425;51.616;6.680;2023-12-29T02:51:36;11.00;90.00
70068;DHT22;57425;51.616;6.680;2023-12-29T02:54:02;10.90;90.00
70068;DHT22;57425;51.616;6.680;2023-12-29T02:56:28;10.90;89.90
70068;DHT22;57425;51.616;6.680;2023-12-29T02:58:53;10.90;89.90
70068;DHT22;57425;51.616;6.680;2023-12-29T03:01:19;10.90;90.00
70068;DHT22;57425;51.616;6.680;2023-12-29T03:03:45;10.90;90.00
70068;DHT22;57425;51.616;6.680;2023-12-29T03:06:11;10.90;90.00
70068;DHT22;57425;51.616;6.680;2023-12-29T03:08:36;10.90;90.00
70068;DHT22;57425;51.616;6.680;2023-12-29T03:11:02;10.90;90.00
70068;DHT22;57425;51.616;6.680;2023-12-29T03:13:27;10.90;90.00
70068;DHT22;57425;51.616;6.680;2023-12-29T03:15:54;10.90;90.00
70068;DHT22;57425;51.616;6.680;2023-12-29T03:18:20;10.90;90.00
70068;DHT22;57425;51.616;6.680;2023-12-29T03:20:45;10.90;90.00
70068;DHT22;57425;51.616;6.680;2023-12-29T03:23:11;10.90;90.00
70068;DHT22;57425;51.616;6.680;2023-12-29T03:25:37;10.90;90.00
70068;DHT22;57425;51.616;6.680;2023-12-29T03:28:03;10.90;90.00
70068;DHT22;57425;51.616;6.680;2023-12-29T03:30:29;10.90;90.00
70068;DHT22;57425;51.616;6.680;2023-12-29T03:32:54;10.90;90.00
70068;DHT22;57425;51.616;6.680;2023-12-29T03:35:20;10.90;90.00
70068;DHT22;57425;51.616;6.680;2023-12-29T03:37:45;10.90;90.00
70068;DHT22;57425;51.616;6.680;2023-12-29T03:40:11;10.90;90.00
70068;DHT22;57425;51.616;6.680;2023-12-29T03:42:39;10.90;90.00
70068;DHT22;57425;51.616;6.680;2023-12-29T03:45:05;10.90;90.00
70068;DHT22;57425;51.616;6.680;2023-12-29T03:47:31;10.90;90.00
70068;DHT22;57425;51.616;6.680;2023-12-29T03:49:57;10.90;90.00
70068;DHT22;57425;51.616;6.680;2023-12-29T03:52:23;10.90;90.00
70068;DHT22;57425;51.616;6.680;2023-12-29T03:54:49;10.90;90.00
70068;DHT22;57425;51.616;6.680;2023-12-29T03:57:14;10.90;90.00
70068;DHT22;57425;51.616;6.680;2023-12-29T03:59:40;10.90;90.00
70068;DHT22;57425;51.616;6.680;2023-12-29T04:02:06;10.90;90.00
70068;DHT22;57425;51.616;6.680;2023-12-29T04:04:31;10.90;90.00
70068;DHT22;57425;51.616;6.680;2023-12-29T04:06:57;10.90;90.00
70068;DHT22;57425;51.616;6.680;2023-12-29T04:09:23;10.90;90.00
70068;DHT22;57425;51.616;6.680;2023-12-29T04:11:48;10.90;90.00
70068;DHT22;57425;51.616;6.680;2023-12-29T04:14:15;10.90;90.00
70068;DHT22;57425;51.616;6.680;2023-12-29T04:16:41;10.90;90.00
70068;DHT22;57425;51.616;6.680;2023-12-29T04:19:08;10.90;90.00
70068;DHT22;57425;51.616;6.680;2023-12-29T04:21:33;10.90;90.00
70068;DHT22;57425;51.616;6.680;2023-12-29T04:23:59;10.90;90.00
70068;DHT22;57425;51.616;6.680;2023-12-29T04:26:25;10.90;90.00
70068;DHT22;57425;51.616;6.680;2023-12-29T04:28:50;10.90;90.20
70068;DHT22;57425;51.616;6.680;2023-12-29T04:31:16;10.90;90.00
70068;DHT22;57425;51.616;6.680;2023-12-29T04:33:41;10.90;90.00
70068;DHT22;57425;51.616;6.680;2023-12-29T04:36:07;10.90;90.00
70068;DHT22;57425;51.616;6.680;2023-12-29T04:38:33;10.90;90.00
70068;DHT22;57425;51.616;6.680;2023-12-29T04:40:58;10.90;90.00
70068;DHT22;57425;51.616;6.680;2023-12-29T04:43:24;10.90;90.00
70068;DHT22;57425;51.616;6.680;2023-12-29T04:45:51;10.90;90.00
70068;DHT22;57425;51.616;6.680;2023-12-29T04:48:17;10.90;90.00
70068;DHT22;57425;51.616;6.680;2023-12-29T04:50:43;10.90;90.00
70068;DHT22;57425;51.616;6.680;2023-12-29T04:53:09;10.80;90.00
70068;DHT22;57425;51.616;6.680;2023-12-29T04:55:34;10.90;90.00
70068;DHT22;57425;51.616;6.680;2023-12-29T04:58:00;10.90;90.00
70068;DHT22;57425;51.616;6.680;2023-12-29T05:00:25;10.90;90.00
70068;DHT22;57425;51.616;6.680;2023-12-29T05:02:51;10.90;90.00
70068;DHT22;57425;51.616;6.680;2023-12-29T05:05:17;10.90;90.00
70068;DHT22;57425;51.616;6.680;2023-12-29T05:07:42;10.90;90.00
70068;DHT22;57425;51.616;6.680;2023-12-29T05:10:08;10.80;90.00
70068;DHT22;57425;51.616;6.680;2023-12-29T05:12:34;10.90;90.00
70068;DHT22;57425;51.616;6.680;2023-12-29T05:14:59;10.90;90.00
70068;DHT22;57425;51.616;6.680;2023-12-29T05:17:25;10.90;90.00
70068;DHT22;57425;51.616;6.680;2023-12-29T05:19:51;10.90;90.00
70068;DHT22;57425;51.616;6.680;2023-12-29T05:22:16;10.90;90.00
70068;DHT22;57425;51.616;6.680;2023-12-29T05:24:43;10.80;90.00
70068;DHT22;57425;51.616;6.680;2023-12-29T05:27:10;10.80;90.00
70068;DHT22;57425;51.616;6.680;2023-12-29T05:29:36;10.90;90.00
70068;DHT22;57425;51.616;6.680;2023-12-29T05:32:02;10.80;90.00
70068;DHT22;57425;51.616;6.680;2023-12-29T05:34:28;10.90;90.00
70068;DHT22;57425;51.616;6.680;2023-12-29T05:36:53;10.80;90.00
70068;DHT22;57425;51.616;6.680;2023-12-29T05:39:19;10.80;90.00
70068;DHT22;57425;51.616;6.680;2023-12-29T05:41:45;10.80;90.00
70068;DHT22;57425;51.616;6.680;2023-12-29T05:44:10;10.80;90.00
70068;DHT22;57425;51.616;6.680;2023-12-29T05:46:36;10.80;90.00
70068;DHT22;57425;51.616;6.680;2023-12-29T05:49:02;10.80;90.00
70068;DHT22;57425;51.616;6.680;2023-12-29T05:51:27;10.80;90.00
70068;DHT22;57425;51.616;6.680;2023-12-29T05:53:53;10.80;90.00
70068;DHT22;57425;51.616;6.680;2023-12-29T05:56:19;10.80;90.00
70068;DHT22;57425;51.616;6.680;2023-12-29T05:58:45;10.80;90.00
70068;DHT22;57425;51.616;6.680;2023-12-29T06:01:11;10.80;90.00
70068;DHT22;57425;51.616;6.680;2023-12-29T06:03:37;10.80;90.00
70068;DHT22;57425;51.616;6.680;2023-12-29T06:06:03;10.80;90.00
70068;DHT22;57425;51.616;6.680;2023-12-29T06:08:29;10.80;90.00
70068;DHT22;57425;51.616;6.680;2023-12-29T06:10:54;10.80;90.00
70068;DHT22;57425;51.616;6.680;2023-12-29T06:13:20;10.80;90.00
70068;DHT22;57425;51.616;6.680;2023-12-29T06:15:46;10.80;90.20
70068;DHT22;57425;51.616;6.680;2023-12-29T06:18:12;10.80;90.00
70068;DHT22;57425;51.616;6.680;2023-12-29T06:20:37;10.80;90.00
70068;DHT22;57425;51.616;6.680;2023-12-29T06:23:03;10.80;90.00
70068;DHT22;57425;51.616;6.680;2023-12-29T06:25:29;10.80;90.00
70068;DHT22;57425;51.616;6.680;2023-12-29T06:27:54;10.80;90.00
70068;DHT22;57425;51.616;6.680;2023-12-29T06:30:20;10.80;90.00
70068;DHT22;57425;51.616;6.680;2023-12-29T06:32:47;10.80;90.00
70068;DHT22;57425;51.616;6.680;2023-12-29T06:35:13;10.80;90.00
70068;DHT22;57425;51.616;6.680;2023-12-29T06:37:39;10.80;90.00
70068;DHT22;57425;51.616;6.680;2023-12-29T06:40:06;10.80;90.00
70068;DHT22;57425;51.616;6.680;2023-12-29T06:42:32;10.80;90.00
70068;DHT22;57425;51.616;6.680;2023-12-29T06:44:59;10.80;90.00
70068;DHT22;57425;51.616;6.680;2023-12-29T06:47:25;10.80;90.00
70068;DHT22;57425;51.616;6.680;2023-12-29T06:49:51;10.80;90.00
70068;DHT22;57425;51.616;6.680;2023-12-29T06:52:17;10.80;90.00
70068;DHT22;57425;51.616;6.680;2023-12-29T06:54:43;10.80;90.00
70068;DHT22;57425;51.616;6.680;2023-12-29T06:57:10;10.80;90.00
70068;DHT22;57425;51.616;6.680;2023-12-29T06:59:36;10.80;90.00
70068;DHT22;57425;51.616;6.680;2023-12-29T07:02:02;10.80;90.00
70068;DHT22;57425;51.616;6.680;2023-12-29T07:04:28;10.80;90.00
70068;DHT22;57425;51.616;6.680;2023-12-29T07:06:53;10.80;90.00
70068;DHT22;57425;51.616;6.680;2023-12-29T07:09:19;10.80;90.00
70068;DHT22;57425;51.616;6.680;2023-12-29T07:11:48;10.80;90.00
70068;DHT22;57425;51.616;6.680;2023-12-29T07:14:15;10.80;90.00
70068;DHT22;57425;51.616;6.680;2023-12-29T07:16:41;10.80;90.00
70068;DHT22;57425;51.616;6.680;2023-12-29T07:19:07;10.80;90.00
70068;DHT22;57425;51.616;6.680;2023-12-29T07:21:32;10.80;90.00
70068;DHT22;57425;51.616;6.680;2023-12-29T07:23:58;10.80;90.00
70068;DHT22;57425;51.616;6.680;2023-12-29T07:26:24;10.70;90.00
70068;DHT22;57425;51.616;6.680;2023-12-29T07:28:49;10.80;90.00
70068;DHT22;57425;51.616;6.680;2023-12-29T07:31:20;10.80;90.00
70068;DHT22;57425;51.616;6.680;2023-12-29T07:33:45;10.80;90.00
70068;DHT22;57425;51.616;6.680;2023-12-29T07:36:11;10.80;90.00
70068;DHT22;57425;51.616;6.680;2023-12-29T07:38:37;10.80;90.00
70068;DHT22;57425;51.616;6.680;2023-12-29T07:41:03;10.80;90.00
70068;DHT22;57425;51.616;6.680;2023-12-29T07:43:29;10.80;90.00
70068;DHT22;57425;51.616;6.680;2023-12-29T07:45:55;10.80;90.00
70068;DHT22;57425;51.616;6.680;2023-12-29T07:48:20;10.70;90.00
70068;DHT22;57425;51.616;6.680;2023-12-29T07:50:46;10.80;90.00
70068;DHT22;57425;51.616;6.680;2023-12-29T07:53:12;10.80;90.00
70068;DHT22;57425;51.616;6.680;2023-12-29T07:55:38;10.80;90.00
70068;DHT22;57425;51.616;6.680;2023-12-29T07:58:05;10.80;90.00
70068;DHT22;57425;51.616;6.680;2023-12-29T08:00:31;10.80;90.00
70068;DHT22;57425;51.616;6.680;2023-12-29T08:02:56;10.80;90.00
70068;DHT22;57425;51.616;6.680;2023-12-29T08:05:24;10.70;90.00
70068;DHT22;57425;51.616;6.680;2023-12-29T08:07:50;10.80;90.00
70068;DHT22;57425;51.616;6.680;2023-12-29T08:10:16;10.70;90.00
70068;DHT22;57425;51.616;6.680;2023-12-29T08:12:42;10.80;90.00
70068;DHT22;57425;51.616;6.680;2023-12-29T08:15:08;10.80;90.00
70068;DHT22;57425;51.616;6.680;2023-12-29T08:17:34;10.70;90.00
70068;DHT22;57425;51.616;6.680;2023-12-29T08:19:59;10.70;90.00
70068;DHT22;57425;51.616;6.680;2023-12-29T08:22:29;10.70;90.00
70068;DHT22;57425;51.616;6.680;2023-12-29T08:24:55;10.80;90.00
70068;DHT22;57425;51.616;6.680;2023-12-29T08:27:24;10.80;90.00
70068;DHT22;57425;51.616;6.680;2023-12-29T08:29:51;10.80;90.00
70068;DHT22;57425;51.616;6.680;2023-12-29T08:32:17;10.80;90.00
70068;DHT22;57425;51.616;6.680;2023-12-29T08:34:42;10.80;90.00
70068;DHT22;57425;51.616;6.680;2023-12-29T08:37:08;10.80;90.00
70068;DHT22;57425;51.616;6.680;2023-12-29T08:39:34;10.70;90.00
70068;DHT22;57425;51.616;6.680;2023-12-29T08:41:59;10.80;90.00
70068;DHT22;57425;51.616;6.680;2023-12-29T08:44:25;10.80;90.00
70068;DHT22;57425;51.616;6.680;2023-12-29T08:46:51;10.80;90.00
70068;DHT22;57425;51.616;6.680;2023-12-29T08:49:16;10.70;90.00
70068;DHT22;57425;51.616;6.680;2023-12-29T08:51:42;10.70;90.00
70068;DHT22;57425;51.616;6.680;2023-12-29T08:54:08;10.80;90.00
70068;DHT22;57425;51.616;6.680;2023-12-29T08:56:34;10.70;90.00
70068;DHT22;57425;51.616;6.680;2023-12-29T08:58:59;10.80;90.00
70068;DHT22;57425;51.616;6.680;2023-12-29T09:01:25;10.80;90.00
70068;DHT22;57425;51.616;6.680;2023-12-29T09:03:51;10.80;90.00
70068;DHT22;57425;51.616;6.680;2023-12-29T09:06:16;10.80;90.10
70068;DHT22;57425;51.616;6.680;2023-12-29T09:08:42;10.80;90.10
70068;DHT22;57425;51.616;6.680;2023-12-29T09:11:08;10.80;90.10
70068;DHT22;57425;51.616;6.680;2023-12-29T09:13:33;10.80;90.00
70068;DHT22;57425;51.616;6.680;2023-12-29T09:15:59;10.80;90.00
70068;DHT22;57425;51.616;6.680;2023-12-29T09:18:25;10.80;90.00
70068;DHT22;57425;51.616;6.680;2023-12-29T09:20:51;10.80;90.00
70068;DHT22;57425;51.616;6.680;2023-12-29T09:23:16;10.80;90.00
70068;DHT22;57425;51.616;6.680;2023-12-29T09:25:42;10.80;90.00
70068;DHT22;57425;51.616;6.680;2023-12-29T09:28:09;10.80;90.00
70068;DHT22;57425;51.616;6.680;2023-12-29T09:30:35;10.80;90.00
70068;DHT22;57425;51.616;6.680;2023-12-29T09:33:02;10.80;90.00
70068;DHT22;57425;51.616;6.680;2023-12-29T09:35:28;10.80;90.00
70068;DHT22;57425;51.616;6.680;2023-12-29T09:37:54;10.90;90.00
70068;DHT22;57425;51.616;6.680;2023-12-29T09:40:20;10.80;90.00
70068;DHT22;57425;51.616;6.680;2023-12-29T09:42:46;10.80;90.00
70068;DHT22;57425;51.616;6.680;2023-12-29T09:45:13;10.80;90.00
70068;DHT22;57425;51.616;6.680;2023-12-29T09:47:40;10.80;90.30
70068;DHT22;57425;51.616;6.680;2023-12-29T09:50:11;10.80;90.00
70068;DHT22;57425;51.616;6.680;2023-12-29T09:52:41;10.80;90.00
70068;DHT22;57425;51.616;6.680;2023-12-29T09:55:10;10.80;90.00
70068;DHT22;57425;51.616;6.680;2023-12-29T09:57:37;10.80;90.00
70068;DHT22;57425;51.616;6.680;2023-12-29T10:00:04;10.80;90.00
70068;DHT22;57425;51.616;6.680;2023-12-29T10:02:31;10.80;90.00
70068;DHT22;57425;51.616;6.680;2023-12-29T10:05:00;10.80;90.00
70068;DHT22;57425;51.616;6.680;2023-12-29T10:07:27;10.80;90.30
70068;DHT22;57425;51.616;6.680;2023-12-29T10:09:57;10.80;90.00
70068;DHT22;57425;51.616;6.680;2023-12-29T10:12:24;10.80;90.00
70068;DHT22;57425;51.616;6.680;2023-12-29T10:15:14;10.80;90.30
70068;DHT22;57425;51.616;6.680;2023-12-29T10:23:08;10.80;90.00
70068;DHT22;57425;51.616;6.680;2023-12-29T10:25:39;10.80;90.00
70068;DHT22;57425;51.616;6.680;2023-12-29T10:28:06;10.80;90.10
70068;DHT22;57425;51.616;6.680;2023-12-29T10:30:31;10.80;90.00
70068;DHT22;57425;51.616;6.680;2023-12-29T10:32:57;10.80;90.00
70068;DHT22;57425;51.616;6.680;2023-12-29T10:35:25;10.80;90.00
70068;DHT22;57425;51.616;6.680;2023-12-29T10:37:51;10.90;90.10
70068;DHT22;57425;51.616;6.680;2023-12-29T10:40:21;10.90;90.00
70068;DHT22;57425;51.616;6.680;2023-12-29T10:42:54;10.80;90.00
70068;DHT22;57425;51.616;6.680;2023-12-29T10:45:21;10.90;90.10
70068;DHT22;57425;51.616;6.680;2023-12-29T10:47:48;10.90;90.10
70068;DHT22;57425;51.616;6.680;2023-12-29T10:50:14;10.90;90.10
70068;DHT22;57425;51.616;6.680;2023-12-29T10:52:39;10.90;90.10
70068;DHT22;57425;51.616;6.680;2023-12-29T10:55:09;10.90;90.10
70068;DHT22;57425;51.616;6.680;2023-12-29T10:57:36;10.90;90.10
70068;DHT22;57425;51.616;6.680;2023-12-29T11:00:02;10.90;90.00
70068;DHT22;57425;51.616;6.680;2023-12-29T11:02:29;10.90;90.10
70068;DHT22;57425;51.616;6.680;2023-12-29T11:05:08;10.90;90.00
70068;DHT22;57425;51.616;6.680;2023-12-29T11:07:36;10.90;90.00
70068;DHT22;57425;51.616;6.680;2023-12-29T11:10:05;10.90;90.00
70068;DHT22;57425;51.616;6.680;2023-12-29T11:12:33;10.90;90.10
70068;DHT22;57425;51.616;6.680;2023-12-29T11:15:04;10.90;90.00
70068;DHT22;57425;51.616;6.680;2023-12-29T11:17:31;10.90;90.10
70068;DHT22;57425;51.616;6.680;2023-12-29T11:20:03;10.90;90.10
70068;DHT22;57425;51.616;6.680;2023-12-29T11:22:30;10.90;90.00
70068;DHT22;57425;51.616;6.680;2023-12-29T11:24:59;10.90;90.10
70068;DHT22;57425;51.616;6.680;2023-12-29T11:27:30;10.90;90.00
70068;DHT22;57425;51.616;6.680;2023-12-29T11:29:58;10.90;90.00
70068;DHT22;57425;51.616;6.680;2023-12-29T11:32:31;10.90;90.10
70068;DHT22;57425;51.616;6.680;2023-12-29T11:35:06;10.90;90.00
70068;DHT22;57425;51.616;6.680;2023-12-29T11:37:44;10.90;90.30
70068;DHT22;57425;51.616;6.680;2023-12-29T11:43:05;11.00;90.00
70068;DHT22;57425;51.616;6.680;2023-12-29T11:45:35;10.90;90.00
70068;DHT22;57425;51.616;6.680;2023-12-29T11:48:01;11.00;90.00
70068;DHT22;57425;51.616;6.680;2023-12-29T11:50:35;10.90;90.00
70068;DHT22;57425;51.616;6.680;2023-12-29T11:53:02;11.00;90.30
70068;DHT22;57425;51.616;6.680;2023-12-29T11:55:37;10.90;90.30
70068;DHT22;57425;51.616;6.680;2023-12-29T11:58:25;11.00;90.00
70068;DHT22;57425;51.616;6.680;2023-12-29T12:00:52;11.00;90.00
70068;DHT22;57425;51.616;6.680;2023-12-29T12:03:28;10.90;90.00
70068;DHT22;57425;51.616;6.680;2023-12-29T12:05:55;11.00;90.00
70068;DHT22;57425;51.616;6.680;2023-12-29T12:08:34;10.90;90.00
70068;DHT22;57425;51.616;6.680;2023-12-29T12:13:57;11.00;90.00
70068;DHT22;57425;51.616;6.680;2023-12-29T12:19:12;11.00;90.00
70068;DHT22;57425;51.616;6.680;2023-12-29T12:21:39;11.00;90.00
70068;DHT22;57425;51.616;6.680;2023-12-29T12:24:07;10.90;90.00
70068;DHT22;57425;51.616;6.680;2023-12-29T12:26:33;11.00;90.00
70068;DHT22;57425;51.616;6.680;2023-12-29T12:29:00;11.00;90.00
70068;DHT22;57425;51.616;6.680;2023-12-29T12:31:26;11.00;90.00
70068;DHT22;57425;51.616;6.680;2023-12-29T12:33:55;11.00;90.00
70068;DHT22;57425;51.616;6.680;2023-12-29T12:36:22;11.00;90.00
70068;DHT22;57425;51.616;6.680;2023-12-29T12:39:07;11.00;90.30
70068;DHT22;57425;51.616;6.680;2023-12-29T12:41:32;11.00;90.00
70068;DHT22;57425;51.616;6.680;2023-12-29T12:44:10;11.20;90.10
70068;DHT22;57425;51.616;6.680;2023-12-29T12:49:13;11.00;90.00
70068;DHT22;57425;51.616;6.680;2023-12-29T12:51:40;11.00;90.00
70068;DHT22;57425;51.616;6.680;2023-12-29T12:54:06;11.00;90.00
70068;DHT22;57425;51.616;6.680;2023-12-29T12:56:33;11.00;90.00
70068;DHT22;57425;51.616;6.680;2023-12-29T12:59:01;11.00;90.00
70068;DHT22;57425;51.616;6.680;2023-12-29T13:01:28;11.00;90.00
70068;DHT22;57425;51.616;6.680;2023-12-29T13:03:56;11.00;90.00
70068;DHT22;57425;51.616;6.680;2023-12-29T13:06:22;11.00;90.00
70068;DHT22;57425;51.616;6.680;2023-12-29T13:08:51;11.00;90.00
70068;DHT22;57425;51.616;6.680;2023-12-29T13:11:21;11.00;90.00
70068;DHT22;57425;51.616;6.680;2023-12-29T13:13:52;11.00;90.00
70068;DHT22;57425;51.616;6.680;2023-12-29T13:18:54;10.90;90.00
70068;DHT22;57425;51.616;6.680;2023-12-29T13:21:20;11.00;90.10
70068;DHT22;57425;51.616;6.680;2023-12-29T13:23:47;10.90;90.00
70068;DHT22;57425;51.616;6.680;2023-12-29T13:26:13;10.90;90.00
70068;DHT22;57425;51.616;6.680;2023-12-29T13:28:40;10.90;90.00
70068;DHT22;57425;51.616;6.680;2023-12-29T13:31:08;11.00;90.00
70068;DHT22;57425;51.616;6.680;2023-12-29T13:33:56;11.00;90.10
70068;DHT22;57425;51.616;6.680;2023-12-29T13:36:37;11.00;90.00
70068;DHT22;57425;51.616;6.680;2023-12-29T13:41:58;10.90;90.00
70068;DHT22;57425;51.616;6.680;2023-12-29T13:44:26;10.90;90.10
70068;DHT22;57425;51.616;6.680;2023-12-29T13:46:54;10.90;90.10
70068;DHT22;57425;51.616;6.680;2023-12-29T13:49:21;10.90;90.10
70068;DHT22;57425;51.616;6.680;2023-12-29T13:51:47;10.90;90.10
70068;DHT22;57425;51.616;6.680;2023-12-29T13:54:13;10.90;90.10
70068;DHT22;57425;51.616;6.680;2023-12-29T13:56:38;10.90;90.10
70068;DHT22;57425;51.616;6.680;2023-12-29T13:59:04;10.90;90.10
70068;DHT22;57425;51.616;6.680;2023-12-29T14:01:38;10.90;90.10
70068;DHT22;57425;51.616;6.680;2023-12-29T14:04:07;10.90;90.10
70068;DHT22;57425;51.616;6.680;2023-12-29T14:06:51;10.90;90.30
70068;DHT22;57425;51.616;6.680;2023-12-29T14:09:19;10.90;90.10
70068;DHT22;57425;51.616;6.680;2023-12-29T14:11:48;10.90;90.10
70068;DHT22;57425;51.616;6.680;2023-12-29T14:14:14;10.90;90.10
70068;DHT22;57425;51.616;6.680;2023-12-29T14:16:46;10.90;90.10
70068;DHT22;57425;51.616;6.680;2023-12-29T14:19:12;10.90;90.10
70068;DHT22;57425;51.616;6.680;2023-12-29T14:21:37;10.90;90.10
70068;DHT22;57425;51.616;6.680;2023-12-29T14:24:14;10.90;90.10
70068;DHT22;57425;51.616;6.680;2023-12-29T14:26:53;10.90;90.10
70068;DHT22;57425;51.616;6.680;2023-12-29T14:29:20;10.90;90.10
70068;DHT22;57425;51.616;6.680;2023-12-29T14:31:46;10.90;90.10
70068;DHT22;57425;51.616;6.680;2023-12-29T14:34:13;10.90;90.40
70068;DHT22;57425;51.616;6.680;2023-12-29T14:36:40;10.90;90.10
70068;DHT22;57425;51.616;6.680;2023-12-29T14:39:06;10.90;90.10
70068;DHT22;57425;51.616;6.680;2023-12-29T14:41:33;10.90;90.10
70068;DHT22;57425;51.616;6.680;2023-12-29T14:43:59;10.90;90.10
70068;DHT22;57425;51.616;6.680;2023-12-29T14:46:25;10.90;90.10
70068;DHT22;57425;51.616;6.680;2023-12-29T14:48:52;10.90;90.10
70068;DHT22;57425;51.616;6.680;2023-12-29T14:51:18;10.90;90.10
70068;DHT22;57425;51.616;6.680;2023-12-29T14:53:48;10.90;90.10
70068;DHT22;57425;51.616;6.680;2023-12-29T14:56:14;10.90;90.10
70068;DHT22;57425;51.616;6.680;2023-12-29T14:58:40;10.90;90.10
70068;DHT22;57425;51.616;6.680;2023-12-29T15:01:07;10.90;90.10
70068;DHT22;57425;51.616;6.680;2023-12-29T15:03:33;10.90;90.10
70068;DHT22;57425;51.616;6.680;2023-12-29T15:05:59;10.90;90.40
70068;DHT22;57425;51.616;6.680;2023-12-29T15:08:25;10.90;90.10
70068;DHT22;57425;51.616;6.680;2023-12-29T15:10:51;10.90;90.20
70068;DHT22;57425;51.616;6.680;2023-12-29T15:13:17;10.90;90.20
70068;DHT22;57425;51.616;6.680;2023-12-29T15:15:43;10.90;90.20
70068;DHT22;57425;51.616;6.680;2023-12-29T15:18:08;10.90;90.10
70068;DHT22;57425;51.616;6.680;2023-12-29T15:20:34;10.90;90.20
70068;DHT22;57425;51.616;6.680;2023-12-29T15:23:00;10.90;90.20
70068;DHT22;57425;51.616;6.680;2023-12-29T15:25:27;10.90;90.20
70068;DHT22;57425;51.616;6.680;2023-12-29T15:27:53;10.90;90.20
70068;DHT22;57425;51.616;6.680;2023-12-29T15:30:19;10.90;90.20
70068;DHT22;57425;51.616;6.680;2023-12-29T15:32:45;10.90;90.20
70068;DHT22;57425;51.616;6.680;2023-12-29T15:35:10;10.90;90.20
70068;DHT22;57425;51.616;6.680;2023-12-29T15:37:36;10.90;90.10
70068;DHT22;57425;51.616;6.680;2023-12-29T15:40:02;10.90;90.10
70068;DHT22;57425;51.616;6.680;2023-12-29T15:42:29;10.80;90.10
70068;DHT22;57425;51.616;6.680;2023-12-29T15:44:55;10.80;90.10
70068;DHT22;57425;51.616;6.680;2023-12-29T15:47:21;10.90;90.20
70068;DHT22;57425;51.616;6.680;2023-12-29T15:49:46;10.80;90.10
70068;DHT22;57425;51.616;6.680;2023-12-29T15:52:12;10.80;90.10
70068;DHT22;57425;51.616;6.680;2023-12-29T15:54:37;10.90;90.20